Time;durP1;ratioP1;P1;durP2;ratioP2;P2;SDS_P1;SDS_P2;PMS_P1;PMS_P2;Temp;Humidity;BMP_temperature;BMP_pressure;BME280_temperature;BME280_humidity;BME280_pressure;Samples;Min_cycle;Max_cycle;Signal;HPM_P1;HPM_P2
2023/01/11 00:02:26;;;;;;;;;;;7.30;99.90;;;;;;5012253;28;19921;-63
2023/01/11 00:04:52;;;;;;;;;;;7.40;99.90;;;;;;5012325;28;20355;-63
2023/01/11 00:07:19;;;;;;;;;;;7.40;99.90;;;;;;5014686;28;19925;-64
2023/01/11 00:09:47;;;;;;;;;;;7.40;99.90;;;;;;5015803;28;19997;-62
2023/01/11 00:12:14;;;;;;;;;;;7.50;99.90;;;;;;5023609;28;20012;-63
2023/01/11 00:14:40;;;;;;;;;;;7.50;99.90;;;;;;5028093;28;19975;-61
2023/01/11 00:17:07;;;;;;;;;;;7.50;99.90;;;;;;5035543;28;19925;-62
2023/01/11 00:19:33;;;;;;;;;;;7.50;99.90;;;;;;5035279;28;19928;-63
2023/01/11 00:22:00;;;;;;;;;;;7.50;99.90;;;;;;5035397;28;20330;-63
2023/01/11 00:24:26;;;;;;;;;;;7.50;99.90;;;;;;5035208;28;19968;-63
2023/01/11 00:26:54;;;;;;;;;;;7.60;99.90;;;;;;5035174;28;19928;-62
2023/01/11 00:29:21;;;;;;;;;;;7.60;99.90;;;;;;5035185;28;20335;-63
2023/01/11 00:31:48;;;;;;;;;;;7.70;99.90;;;;;;5035180;28;20350;-64
2023/01/11 00:34:14;;;;;;;;;;;7.60;99.90;;;;;;5035028;28;19979;-62
2023/01/11 00:36:41;;;;;;;;;;;7.70;99.90;;;;;;5035053;28;19925;-62
2023/01/11 00:39:07;;;;;;;;;;;7.70;99.90;;;;;;5034881;28;19925;-63
2023/01/11 00:49:57;;;;;;;;;;;7.70;99.90;;;;;;5014845;28;20383;-61
2023/01/11 00:52:24;;;;;;;;;;;7.80;99.90;;;;;;5015134;28;19922;-64
2023/01/11 00:54:50;;;;;;;;;;;7.80;99.90;;;;;;5015334;28;20004;-63
2023/01/11 00:57:17;;;;;;;;;;;7.80;99.90;;;;;;5014847;28;19968;-62
2023/01/11 00:59:45;;;;;;;;;;;7.90;99.90;;;;;;5014865;28;20347;-62
2023/01/11 01:02:12;;;;;;;;;;;7.90;99.90;;;;;;5014820;28;19921;-61
2023/01/11 01:04:38;;;;;;;;;;;7.90;99.90;;;;;;5014955;28;19976;-61
2023/01/11 01:07:05;;;;;;;;;;;8.00;99.90;;;;;;5014740;28;19928;-60
2023/01/11 01:09:31;;;;;;;;;;;8.00;99.90;;;;;;5014738;28;19951;-62
2023/01/11 01:11:58;;;;;;;;;;;8.10;99.90;;;;;;5021134;28;19933;-59
2023/01/11 01:14:28;;;;;;;;;;;8.10;99.90;;;;;;5026185;28;19925;-63
2023/01/11 01:16:57;;;;;;;;;;;8.10;99.90;;;;;;5033655;28;19921;-59
2023/01/11 01:19:26;;;;;;;;;;;8.20;99.90;;;;;;5034389;28;19928;-62
2023/01/11 01:21:53;;;;;;;;;;;8.20;99.90;;;;;;5034165;28;19948;-63
2023/01/11 01:24:20;;;;;;;;;;;8.20;99.90;;;;;;5034208;28;19976;-60
2023/01/11 01:26:46;;;;;;;;;;;8.20;99.90;;;;;;5033883;28;19925;-62
2023/01/11 01:29:14;;;;;;;;;;;8.20;99.90;;;;;;5033980;28;19929;-63
2023/01/11 01:31:41;;;;;;;;;;;8.30;99.90;;;;;;5034006;28;19925;-63
2023/01/11 01:34:09;;;;;;;;;;;8.30;99.90;;;;;;5034025;28;20330;-62
2023/01/11 01:36:36;;;;;;;;;;;8.30;99.90;;;;;;5033783;28;19921;-62
2023/01/11 01:39:04;;;;;;;;;;;8.20;99.90;;;;;;5033828;28;19986;-62
2023/01/11 01:41:30;;;;;;;;;;;8.30;99.90;;;;;;5030897;28;19922;-60
2023/01/11 01:43:58;;;;;;;;;;;8.30;99.90;;;;;;5021982;28;19926;-62
2023/01/11 01:46:27;;;;;;;;;;;8.30;99.90;;;;;;5013776;28;20004;-62
2023/01/11 01:48:56;;;;;;;;;;;8.30;99.90;;;;;;5013892;28;19922;-63
2023/01/11 01:51:26;;;;;;;;;;;8.30;99.90;;;;;;5013764;28;19925;-62
2023/01/11 01:53:54;;;;;;;;;;;8.30;99.90;;;;;;5013853;28;20052;-62
2023/01/11 01:56:24;;;;;;;;;;;8.40;99.90;;;;;;5013705;28;19921;-62
2023/01/11 01:58:54;;;;;;;;;;;8.40;99.90;;;;;;5013855;28;19921;-61
2023/01/11 02:04:07;;;;;;;;;;;8.50;99.90;;;;;;5013656;28;20029;-62
2023/01/11 02:06:35;;;;;;;;;;;8.60;99.90;;;;;;5013303;28;19929;-57
2023/01/11 02:09:04;;;;;;;;;;;8.60;99.90;;;;;;5013377;28;20388;-62
2023/01/11 02:11:30;;;;;;;;;;;8.60;99.90;;;;;;5016189;28;19921;-64
2023/01/11 02:13:58;;;;;;;;;;;8.50;99.90;;;;;;5024887;28;19975;-61
2023/01/11 02:16:24;;;;;;;;;;;8.50;99.90;;;;;;5033071;28;20324;-60
2023/01/11 02:18:51;;;;;;;;;;;8.40;99.90;;;;;;5033168;28;19925;-61
2023/01/11 02:21:21;;;;;;;;;;;8.40;99.90;;;;;;5032841;28;19925;-61
2023/01/11 02:24:03;;;;;;;;;;;8.40;99.90;;;;;;5033291;28;20020;-62
2023/01/11 02:26:41;;;;;;;;;;;8.30;99.90;;;;;;5032946;28;19925;-63
2023/01/11 02:29:13;;;;;;;;;;;8.30;99.90;;;;;;5032329;28;20008;-60
2023/01/11 02:31:43;;;;;;;;;;;8.30;99.90;;;;;;5028355;28;20012;-62
2023/01/11 02:34:14;;;;;;;;;;;8.20;99.90;;;;;;5013035;28;20060;-63
2023/01/11 02:36:47;;;;;;;;;;;8.20;99.90;;;;;;5012766;28;20351;-63
2023/01/11 02:39:16;;;;;;;;;;;8.20;99.90;;;;;;5012631;28;19929;-62
2023/01/11 02:47:22;;;;;;;;;;;8.20;99.90;;;;;;5032455;28;20335;-63
2023/01/11 02:49:51;;;;;;;;;;;8.20;99.90;;;;;;5032603;28;20398;-64
2023/01/11 02:52:20;;;;;;;;;;;8.20;99.90;;;;;;5032443;28;19928;-63
2023/01/11 02:54:52;;;;;;;;;;;8.20;99.90;;;;;;5032592;28;20542;-62
2023/01/11 02:57:20;;;;;;;;;;;8.20;99.90;;;;;;5032448;28;19921;-61
2023/01/11 02:59:48;;;;;;;;;;;8.20;99.90;;;;;;5032382;28;19921;-61
2023/01/11 03:02:15;;;;;;;;;;;8.20;99.90;;;;;;5032323;28;19920;-64
2023/01/11 03:04:42;;;;;;;;;;;8.20;99.90;;;;;;5032492;28;19943;-61
2023/01/11 03:07:14;;;;;;;;;;;8.20;99.90;;;;;;5032026;28;19921;-60
2023/01/11 03:09:44;;;;;;;;;;;8.20;99.90;;;;;;5032600;28;19924;-61
2023/01/11 03:15:13;;;;;;;;;;;8.30;99.90;;;;;;5016495;28;20011;-63
2023/01/11 03:17:45;;;;;;;;;;;8.30;99.90;;;;;;5012354;28;20360;-62
2023/01/11 03:20:17;;;;;;;;;;;8.30;99.90;;;;;;5012662;28;19921;-60
2023/01/11 03:22:50;;;;;;;;;;;8.30;99.90;;;;;;5012579;28;19925;-62
2023/01/11 03:25:19;;;;;;;;;;;8.30;99.90;;;;;;5012789;28;20331;-63
2023/01/11 03:27:49;;;;;;;;;;;8.30;99.90;;;;;;5012287;28;19921;-62
2023/01/11 03:30:21;;;;;;;;;;;8.30;99.90;;;;;;5012126;28;20392;-64
2023/01/11 03:32:50;;;;;;;;;;;8.30;99.90;;;;;;5012705;28;19925;-63
2023/01/11 03:35:20;;;;;;;;;;;8.30;99.90;;;;;;5012536;28;19926;-62
2023/01/11 03:37:50;;;;;;;;;;;8.40;99.90;;;;;;5012187;28;20428;-63
2023/01/11 03:40:19;;;;;;;;;;;8.40;99.90;;;;;;5012116;28;19921;-63
2023/01/11 03:45:34;;;;;;;;;;;8.50;99.90;;;;;;5035515;28;20011;-62
2023/01/11 03:48:01;;;;;;;;;;;8.50;99.90;;;;;;5035797;28;19975;-63
2023/01/11 03:50:29;;;;;;;;;;;8.50;99.90;;;;;;5035850;28;19921;-63
2023/01/11 03:52:57;;;;;;;;;;;8.50;99.90;;;;;;5035780;28;19925;-63
2023/01/11 03:55:28;;;;;;;;;;;8.50;99.90;;;;;;5036006;28;19925;-62
2023/01/11 03:57:55;;;;;;;;;;;8.50;99.90;;;;;;5035831;28;19967;-61
2023/01/11 04:00:22;;;;;;;;;;;8.50;99.90;;;;;;5035602;28;19967;-60
2023/01/11 04:02:52;;;;;;;;;;;8.60;99.90;;;;;;5035671;28;19921;-60
2023/01/11 04:05:19;;;;;;;;;;;8.60;99.90;;;;;;5035550;28;19927;-63
2023/01/11 04:07:46;;;;;;;;;;;8.60;99.90;;;;;;5035808;28;19975;-61
2023/01/11 04:10:12;;;;;;;;;;;8.60;99.90;;;;;;5035365;28;19929;-62
2023/01/11 04:12:39;;;;;;;;;;;8.70;99.90;;;;;;5027191;28;19936;-62
2023/01/11 04:15:06;;;;;;;;;;;8.70;99.90;;;;;;5019453;28;20372;-60
2023/01/11 04:17:32;;;;;;;;;;;8.80;99.90;;;;;;5015418;28;19921;-62
2023/01/11 04:20:00;;;;;;;;;;;8.80;99.90;;;;;;5015465;28;19921;-63
2023/01/11 04:22:27;;;;;;;;;;;8.80;99.90;;;;;;5015895;28;19925;-62
2023/01/11 04:24:53;;;;;;;;;;;8.80;99.90;;;;;;5015747;28;19999;-63
2023/01/11 04:27:20;;;;;;;;;;;8.90;99.90;;;;;;5015416;28;19921;-63
2023/01/11 04:29:46;;;;;;;;;;;8.90;99.90;;;;;;5015659;28;19925;-63
2023/01/11 04:32:13;;;;;;;;;;;8.90;99.90;;;;;;5015314;28;19986;-63
2023/01/11 04:34:39;;;;;;;;;;;8.90;99.90;;;;;;5015572;28;19921;-63
2023/01/11 04:37:08;;;;;;;;;;;8.90;99.90;;;;;;5015193;28;19921;-62
2023/01/11 04:39:34;;;;;;;;;;;8.90;99.90;;;;;;5015299;28;19975;-59
2023/01/11 04:42:19;;;;;;;;;;;8.90;99.90;;;;;;5022107;28;20546;-59
2023/01/11 04:44:46;;;;;;;;;;;9.00;99.90;;;;;;5021816;28;20352;-63
2023/01/11 04:47:13;;;;;;;;;;;9.00;99.90;;;;;;5034556;28;19932;-62
2023/01/11 04:49:39;;;;;;;;;;;9.00;99.90;;;;;;5034955;28;19921;-60
2023/01/11 04:52:07;;;;;;;;;;;9.00;99.90;;;;;;5034246;28;19921;-58
2023/01/11 04:54:34;;;;;;;;;;;9.00;99.90;;;;;;5034834;28;19925;-61
2023/01/11 04:57:00;;;;;;;;;;;9.00;99.90;;;;;;5034534;28;20339;-62
2023/01/11 04:59:27;;;;;;;;;;;9.00;99.90;;;;;;5034628;28;19921;-61
2023/01/11 05:01:53;;;;;;;;;;;9.00;99.90;;;;;;5034339;28;20033;-64
2023/01/11 05:04:20;;;;;;;;;;;9.00;99.90;;;;;;5034673;28;19983;-61
2023/01/11 05:06:47;;;;;;;;;;;9.10;99.90;;;;;;5034433;28;19928;-60
2023/01/11 05:09:16;;;;;;;;;;;9.10;99.90;;;;;;5034541;28;19949;-61
2023/01/11 05:11:42;;;;;;;;;;;9.10;99.90;;;;;;5029623;28;20273;-62
2023/01/11 05:14:09;;;;;;;;;;;9.10;99.90;;;;;;5022543;28;19925;-58
2023/01/11 05:16:36;;;;;;;;;;;9.10;99.90;;;;;;5014725;28;20347;-61
2023/01/11 05:19:03;;;;;;;;;;;9.20;99.90;;;;;;5014407;28;19921;-59
2023/01/11 05:21:31;;;;;;;;;;;9.10;99.90;;;;;;5014380;28;20452;-60
2023/01/11 05:23:58;;;;;;;;;;;9.20;99.90;;;;;;5014698;28;19967;-59
2023/01/11 05:26:27;;;;;;;;;;;9.20;99.90;;;;;;5014171;28;20019;-60
2023/01/11 05:28:55;;;;;;;;;;;9.20;99.90;;;;;;5014231;28;20471;-61
2023/01/11 05:31:21;;;;;;;;;;;9.30;99.90;;;;;;5014228;28;19975;-61
2023/01/11 05:33:48;;;;;;;;;;;9.30;99.90;;;;;;5014530;28;19925;-60
2023/01/11 05:36:15;;;;;;;;;;;9.40;99.90;;;;;;5013870;28;20524;-61
2023/01/11 05:38:42;;;;;;;;;;;9.30;99.90;;;;;;5014318;28;19921;-61
2023/01/11 05:41:10;;;;;;;;;;;9.40;99.90;;;;;;5013893;28;20276;-61
2023/01/11 05:45:27;;;;;;;;;;;9.40;99.90;;;;;;5013331;28;19952;-59
2023/01/11 05:46:25;;;;;;;;;;;9.40;99.90;;;;;;5023174;28;19921;-63
2023/01/11 05:48:52;;;;;;;;;;;9.40;99.90;;;;;;5025340;28;20315;-62
2023/01/11 05:51:18;;;;;;;;;;;9.50;99.90;;;;;;5024737;28;20387;-63
2023/01/11 05:53:45;;;;;;;;;;;9.50;99.90;;;;;;5033432;28;19925;-63
2023/01/11 05:56:11;;;;;;;;;;;9.50;99.90;;;;;;5024856;28;19925;-63
2023/01/11 05:58:39;;;;;;;;;;;9.50;99.90;;;;;;5013407;28;19925;-62
2023/01/11 06:01:06;;;;;;;;;;;9.50;99.90;;;;;;5013530;28;19921;-63
2023/01/11 06:03:32;;;;;;;;;;;9.50;99.90;;;;;;5012234;28;20377;-62
2023/01/11 06:05:59;;;;;;;;;;;9.50;99.90;;;;;;5013326;28;20020;-63
2023/01/11 06:08:26;;;;;;;;;;;9.50;99.90;;;;;;5012987;28;20277;-63
2023/01/11 06:10:52;;;;;;;;;;;9.50;99.90;;;;;;5013424;28;19925;-63
2023/01/11 06:13:29;;;;;;;;;;;9.50;99.90;;;;;;5022668;28;20347;-63
2023/01/11 06:15:58;;;;;;;;;;;9.50;99.90;;;;;;5032803;28;19921;-63
2023/01/11 06:18:24;;;;;;;;;;;9.50;99.90;;;;;;5032967;28;19925;-63
2023/01/11 06:20:51;;;;;;;;;;;9.60;99.90;;;;;;5026026;28;19926;-62
2023/01/11 06:23:18;;;;;;;;;;;9.60;99.90;;;;;;5021284;28;19975;-60
2023/01/11 06:25:45;;;;;;;;;;;9.60;99.90;;;;;;5012536;28;19979;-60
2023/01/11 06:28:11;;;;;;;;;;;9.60;99.90;;;;;;5012719;28;19975;-61
2023/01/11 06:30:38;;;;;;;;;;;9.60;99.90;;;;;;5012445;28;19941;-63
2023/01/11 06:33:06;;;;;;;;;;;9.60;99.90;;;;;;5012885;28;20352;-61
2023/01/11 06:35:33;;;;;;;;;;;9.70;99.90;;;;;;5012254;28;19925;-61
2023/01/11 06:37:59;;;;;;;;;;;9.70;99.90;;;;;;5012185;28;19920;-60
2023/01/11 06:40:26;;;;;;;;;;;9.70;99.90;;;;;;5021415;28;19924;-61
2023/01/11 06:42:52;;;;;;;;;;;9.70;99.90;;;;;;5026268;28;19921;-60
2023/01/11 06:45:19;;;;;;;;;;;9.70;99.90;;;;;;5023591;28;19921;-60
2023/01/11 06:47:46;;;;;;;;;;;9.70;99.90;;;;;;5026381;28;19921;-60
2023/01/11 06:50:13;;;;;;;;;;;9.70;99.90;;;;;;5020471;28;19925;-60
2023/01/11 06:52:40;;;;;;;;;;;9.80;99.90;;;;;;5016008;28;20465;-60
2023/01/11 06:55:07;;;;;;;;;;;9.70;99.90;;;;;;5023579;28;19921;-60
2023/01/11 06:57:33;;;;;;;;;;;9.70;99.90;;;;;;5031582;28;19928;-60
2023/01/11 07:00:00;;;;;;;;;;;9.80;99.90;;;;;;5024529;28;19921;-57
2023/01/11 07:02:26;;;;;;;;;;;9.80;99.90;;;;;;5019445;28;19929;-58
2023/01/11 07:04:53;;;;;;;;;;;9.80;99.90;;;;;;5012023;28;19926;-58
2023/01/11 07:07:21;;;;;;;;;;;9.80;99.90;;;;;;5011796;28;19921;-57
2023/01/11 07:09:47;;;;;;;;;;;9.80;99.90;;;;;;5011658;28;19921;-55
2023/01/11 07:12:14;;;;;;;;;;;9.80;99.90;;;;;;5019840;28;19921;-57
2023/01/11 07:14:41;;;;;;;;;;;9.80;99.90;;;;;;5024045;28;19921;-57
2023/01/11 07:17:07;;;;;;;;;;;9.80;99.90;;;;;;5021823;28;19921;-58
2023/01/11 07:19:34;;;;;;;;;;;9.90;99.90;;;;;;5020245;28;19976;-58
2023/01/11 07:22:00;;;;;;;;;;;9.90;99.90;;;;;;5011743;28;20365;-59
2023/01/11 07:24:28;;;;;;;;;;;9.90;99.90;;;;;;5011985;28;19925;-55
2023/01/11 07:26:58;;;;;;;;;;;9.90;99.90;;;;;;5011277;28;19925;-58
2023/01/11 07:29:25;;;;;;;;;;;9.90;99.90;;;;;;5011654;28;20008;-58
2023/01/11 07:31:51;;;;;;;;;;;9.90;99.90;;;;;;5011827;28;19921;-59
2023/01/11 07:34:18;;;;;;;;;;;9.90;99.90;;;;;;5011357;28;19921;-59
2023/01/11 07:36:44;;;;;;;;;;;9.90;99.90;;;;;;5011346;28;19933;-58
2023/01/11 07:39:11;;;;;;;;;;;9.90;99.90;;;;;;5011112;28;19952;-53
2023/01/11 07:44:23;;;;;;;;;;;10.00;99.90;;;;;;5022760;28;20304;-58
2023/01/11 07:47:00;;;;;;;;;;;;;;;;;;;;;
2023/01/11 07:49:27;;;;;;;;;;;10.00;99.90;;;;;;5031261;28;19921;-57
2023/01/11 07:51:54;;;;;;;;;;;10.00;99.90;;;;;;5022488;28;19928;-56
2023/01/11 07:54:21;;;;;;;;;;;10.00;99.90;;;;;;5013332;28;19922;-56
2023/01/11 07:56:49;;;;;;;;;;;10.00;99.90;;;;;;5010843;28;19925;-59
2023/01/11 07:59:16;;;;;;;;;;;10.00;99.90;;;;;;5019701;28;19944;-56
2023/01/11 08:01:42;;;;;;;;;;;10.00;99.90;;;;;;5014357;28;19921;-56
2023/01/11 08:04:12;;;;;;;;;;;10.00;99.90;;;;;;5014896;28;19921;-55
2023/01/11 08:06:38;;;;;;;;;;;10.00;99.90;;;;;;5011076;28;19964;-59
2023/01/11 08:09:05;;;;;;;;;;;10.00;99.90;;;;;;5011118;28;20312;-58
2023/01/11 08:14:40;;;;;;;;;;;10.00;99.90;;;;;;4986639;28;19932;-58
2023/01/11 08:17:08;;;;;;;;;;;10.00;99.90;;;;;;5031733;28;20351;-60
2023/01/11 08:19:34;;;;;;;;;;;10.10;99.90;;;;;;5030837;28;19932;-58
2023/01/11 08:22:01;;;;;;;;;;;10.10;99.90;;;;;;5031288;28;19928;-53
2023/01/11 08:24:27;;;;;;;;;;;10.10;99.90;;;;;;5031103;28;19974;-50
2023/01/11 08:26:54;;;;;;;;;;;10.20;99.90;;;;;;5031490;28;19921;-64
2023/01/11 08:29:21;;;;;;;;;;;10.20;99.90;;;;;;5027542;28;20009;-65
2023/01/11 08:31:49;;;;;;;;;;;10.30;99.90;;;;;;5022401;28;19922;-64
2023/01/11 08:34:15;;;;;;;;;;;10.30;99.90;;;;;;5023416;28;19921;-65
2023/01/11 08:36:42;;;;;;;;;;;10.30;99.90;;;;;;5033832;28;19925;-64
2023/01/11 08:39:09;;;;;;;;;;;10.30;99.90;;;;;;5034500;28;19967;-59
2023/01/11 08:41:37;;;;;;;;;;;10.30;99.90;;;;;;5030180;28;19921;-58
2023/01/11 08:44:03;;;;;;;;;;;10.30;99.90;;;;;;5022674;28;20392;-57
2023/01/11 08:46:32;;;;;;;;;;;10.30;99.90;;;;;;5014067;28;19921;-55
2023/01/11 08:49:01;;;;;;;;;;;10.30;99.90;;;;;;5014266;28;19929;-55
2023/01/11 08:51:27;;;;;;;;;;;10.30;99.90;;;;;;5014519;28;19921;-55
2023/01/11 08:53:54;;;;;;;;;;;10.30;99.90;;;;;;5019999;28;19932;-54
2023/01/11 08:56:20;;;;;;;;;;;10.30;99.90;;;;;;5025630;28;19949;-54
2023/01/11 08:58:47;;;;;;;;;;;10.30;99.90;;;;;;5033492;28;19921;-54
2023/01/11 09:01:13;;;;;;;;;;;10.40;99.90;;;;;;5033740;28;19928;-54
2023/01/11 09:03:40;;;;;;;;;;;10.40;99.90;;;;;;5031635;28;19925;-54
2023/01/11 09:06:08;;;;;;;;;;;10.30;99.90;;;;;;5013469;28;19925;-57
2023/01/11 09:08:34;;;;;;;;;;;10.30;99.90;;;;;;5014257;28;19987;-54
2023/01/11 09:11:01;;;;;;;;;;;10.30;99.90;;;;;;5013621;28;19944;-59
2023/01/11 09:13:28;;;;;;;;;;;10.30;99.90;;;;;;5024580;28;19933;-56
2023/01/11 09:15:55;;;;;;;;;;;10.20;99.90;;;;;;5033176;28;20513;-58
2023/01/11 09:18:21;;;;;;;;;;;10.20;99.90;;;;;;5033796;28;20374;-60
2023/01/11 09:20:50;;;;;;;;;;;10.20;99.90;;;;;;5033756;28;20348;-61
2023/01/11 09:23:27;;;;;;;;;;;10.20;99.90;;;;;;5033112;28;20384;-62
2023/01/11 09:25:55;;;;;;;;;;;10.20;99.90;;;;;;5027431;28;19925;-62
2023/01/11 09:28:21;;;;;;;;;;;10.10;99.90;;;;;;5021257;28;19921;-64
2023/01/11 09:30:48;;;;;;;;;;;10.10;99.90;;;;;;5014057;28;19921;-63
2023/01/11 09:33:15;;;;;;;;;;;10.00;99.90;;;;;;5013589;28;19973;-62
2023/01/11 09:35:41;;;;;;;;;;;9.90;99.90;;;;;;5013037;28;19963;-63
2023/01/11 09:38:08;;;;;;;;;;;9.90;99.90;;;;;;5015966;28;19925;-63
2023/01/11 09:40:40;;;;;;;;;;;9.90;99.90;;;;;;5024240;28;20474;-63
2023/01/11 09:43:10;;;;;;;;;;;9.80;99.90;;;;;;5025220;28;19964;-63
2023/01/11 09:45:45;;;;;;;;;;;9.80;99.90;;;;;;4993588;28;19922;-64
2023/01/11 09:48:22;;;;;;;;;;;9.80;99.90;;;;;;5011139;28;19921;-62
2023/01/11 09:50:49;;;;;;;;;;;9.80;99.90;;;;;;5012482;28;20396;-62
2023/01/11 09:53:18;;;;;;;;;;;9.70;99.90;;;;;;5013224;28;20411;-62
2023/01/11 09:55:46;;;;;;;;;;;9.70;99.90;;;;;;5013187;28;19928;-62
2023/01/11 09:58:31;;;;;;;;;;;9.70;99.90;;;;;;5012866;28;19925;-63
2023/01/11 10:01:01;;;;;;;;;;;9.60;99.90;;;;;;5013209;28;20041;-63
2023/01/11 10:03:44;;;;;;;;;;;9.60;99.90;;;;;;5012939;28;19921;-63
2023/01/11 10:06:16;;;;;;;;;;;9.60;99.90;;;;;;5012935;28;19928;-63
2023/01/11 10:08:49;;;;;;;;;;;9.60;99.90;;;;;;5012884;28;19928;-63
2023/01/11 10:11:26;;;;;;;;;;;9.60;99.90;;;;;;5013850;28;20021;-63
2023/01/11 10:13:57;;;;;;;;;;;9.60;99.90;;;;;;5024106;28;19921;-61
2023/01/11 10:16:31;;;;;;;;;;;9.60;99.90;;;;;;5032360;28;20535;-63
2023/01/11 10:19:04;;;;;;;;;;;9.60;99.90;;;;;;5031712;28;19921;-63
2023/01/11 10:21:33;;;;;;;;;;;9.60;99.90;;;;;;5032490;28;19921;-63
2023/01/11 10:24:01;;;;;;;;;;;9.50;99.90;;;;;;5032646;28;19975;-63
2023/01/11 10:26:34;;;;;;;;;;;9.50;99.90;;;;;;5031865;28;19924;-62
2023/01/11 10:29:21;;;;;;;;;;;9.50;99.90;;;;;;5024829;28;19928;-62
2023/01/11 10:32:08;;;;;;;;;;;9.50;99.90;;;;;;5019293;28;19921;-63
2023/01/11 10:34:56;;;;;;;;;;;9.50;99.90;;;;;;5032272;28;19925;-61
2023/01/11 10:37:42;;;;;;;;;;;9.50;99.90;;;;;;5031789;28;19920;-63
2023/01/11 10:40:30;;;;;;;;;;;9.50;99.90;;;;;;5032066;28;20014;-61
2023/01/11 10:43:02;;;;;;;;;;;9.50;99.90;;;;;;5023379;28;20296;-61
2023/01/11 10:45:31;;;;;;;;;;;9.50;99.90;;;;;;5012752;28;19925;-60
2023/01/11 10:48:00;;;;;;;;;;;9.50;99.90;;;;;;5011716;28;20295;-61
2023/01/11 10:50:30;;;;;;;;;;;9.50;99.90;;;;;;5011825;28;19929;-61
2023/01/11 10:53:01;;;;;;;;;;;9.50;99.90;;;;;;5012051;28;19925;-60
2023/01/11 10:55:30;;;;;;;;;;;9.50;99.90;;;;;;5012447;28;19968;-59
2023/01/11 10:58:03;;;;;;;;;;;9.50;99.90;;;;;;5011605;28;20316;-61
2023/01/11 11:00:35;;;;;;;;;;;9.50;99.90;;;;;;5020032;28;19944;-60
2023/01/11 11:03:20;;;;;;;;;;;9.50;99.90;;;;;;5027591;28;19948;-62
2023/01/11 11:05:50;;;;;;;;;;;9.50;99.90;;;;;;5031422;28;19929;-62
2023/01/11 11:08:21;;;;;;;;;;;9.50;99.90;;;;;;5031325;28;19971;-65
2023/01/11 11:10:52;;;;;;;;;;;9.60;99.90;;;;;;5031491;28;20364;-58
2023/01/11 11:13:23;;;;;;;;;;;9.60;99.90;;;;;;5022629;28;19929;-60
2023/01/11 11:16:14;;;;;;;;;;;9.60;99.90;;;;;;5012128;28;19921;-64
2023/01/11 11:18:41;;;;;;;;;;;9.60;99.90;;;;;;5011530;28;19929;-62
2023/01/11 11:21:15;;;;;;;;;;;9.70;99.90;;;;;;5011752;28;19929;-62
2023/01/11 11:23:42;;;;;;;;;;;9.60;99.90;;;;;;5011527;28;19921;-64
2023/01/11 11:26:09;;;;;;;;;;;9.60;99.90;;;;;;5011583;28;19944;-63
2023/01/11 11:28:37;;;;;;;;;;;9.60;99.90;;;;;;5011298;28;19971;-63
2023/01/11 11:31:05;;;;;;;;;;;9.60;99.90;;;;;;5018026;28;20000;-60
2023/01/11 11:33:34;;;;;;;;;;;9.60;99.90;;;;;;5017612;28;20269;-60
2023/01/11 11:36:03;;;;;;;;;;;9.60;99.90;;;;;;5016263;28;19921;-65
2023/01/11 11:38:30;;;;;;;;;;;9.60;99.90;;;;;;5011543;28;19925;-61
2023/01/11 11:40:58;;;;;;;;;;;9.60;99.90;;;;;;5011506;28;19928;-61
2023/01/11 11:43:25;;;;;;;;;;;9.60;99.90;;;;;;5022181;28;19975;-63
2023/01/11 11:45:57;;;;;;;;;;;9.60;99.90;;;;;;5019241;28;19922;-60
2023/01/11 11:48:24;;;;;;;;;;;9.50;99.90;;;;;;5011540;28;20384;-61
2023/01/11 11:50:52;;;;;;;;;;;9.40;99.90;;;;;;5010994;28;19982;-63
2023/01/11 11:53:43;;;;;;;;;;;9.30;99.90;;;;;;5020967;28;19921;-63
2023/01/11 11:56:17;;;;;;;;;;;9.40;99.90;;;;;;5015370;28;19921;-64
2023/01/11 11:58:44;;;;;;;;;;;9.40;99.90;;;;;;5023003;28;20261;-62
2023/01/11 12:01:22;;;;;;;;;;;9.40;99.90;;;;;;5023167;28;20350;-63
2023/01/11 12:03:49;;;;;;;;;;;9.60;99.90;;;;;;5016654;28;19941;-62
2023/01/11 12:06:20;;;;;;;;;;;9.60;99.90;;;;;;5022712;28;19944;-61
2023/01/11 12:08:47;;;;;;;;;;;9.60;99.90;;;;;;5022884;28;19925;-62
2023/01/11 12:11:18;;;;;;;;;;;9.70;99.90;;;;;;5015907;28;19976;-62
2023/01/11 12:13:57;;;;;;;;;;;9.80;99.90;;;;;;5026052;28;19980;-59
2023/01/11 12:16:29;;;;;;;;;;;9.80;99.90;;;;;;5034598;28;19921;-62
2023/01/11 12:18:56;;;;;;;;;;;9.70;99.90;;;;;;5034048;28;20614;-58
2023/01/11 12:21:24;;;;;;;;;;;9.70;99.90;;;;;;5034746;28;19929;-58
2023/01/11 12:24:07;;;;;;;;;;;9.70;99.90;;;;;;5034769;28;19928;-61
2023/01/11 12:26:37;;;;;;;;;;;9.70;99.90;;;;;;5034192;28;20008;-62
2023/01/11 12:29:24;;;;;;;;;;;9.70;99.90;;;;;;5034702;28;19921;-62
2023/01/11 12:32:07;;;;;;;;;;;9.80;99.90;;;;;;5008872;28;19955;-62
2023/01/11 12:34:39;;;;;;;;;;;9.80;99.90;;;;;;5034605;28;19974;-63
2023/01/11 12:37:12;;;;;;;;;;;9.70;99.90;;;;;;5025855;28;19921;-63
2023/01/11 12:39:43;;;;;;;;;;;9.60;99.90;;;;;;5034298;28;20442;-64
2023/01/11 12:42:20;;;;;;;;;;;9.60;99.90;;;;;;5031319;28;20011;-61
2023/01/11 12:44:57;;;;;;;;;;;9.60;99.90;;;;;;5021464;28;19929;-62
2023/01/11 12:47:39;;;;;;;;;;;9.60;99.90;;;;;;5014270;28;19925;-60
2023/01/11 12:50:08;;;;;;;;;;;9.50;99.90;;;;;;5014723;28;19968;-62
2023/01/11 12:52:40;;;;;;;;;;;9.50;99.90;;;;;;5014314;28;19921;-61
2023/01/11 12:55:19;;;;;;;;;;;9.40;99.90;;;;;;5014850;28;19925;-62
2023/01/11 12:57:59;;;;;;;;;;;9.40;99.90;;;;;;5018626;28;20406;-63
2023/01/11 13:00:48;;;;;;;;;;;9.50;99.90;;;;;;5016180;28;19941;-61
2023/01/11 13:03:27;;;;;;;;;;;9.60;99.90;;;;;;5017277;28;19925;-61
2023/01/11 13:05:56;;;;;;;;;;;9.70;99.90;;;;;;5019900;28;20160;-63
2023/01/11 13:08:27;;;;;;;;;;;9.90;99.90;;;;;;5025639;28;19921;-62
2023/01/11 13:10:58;;;;;;;;;;;10.00;99.90;;;;;;5033907;28;19921;-61
2023/01/11 13:13:29;;;;;;;;;;;10.10;99.90;;;;;;5022780;28;20383;-62
2023/01/11 13:15:58;;;;;;;;;;;10.10;99.90;;;;;;5013425;28;19987;-61
2023/01/11 13:18:30;;;;;;;;;;;10.00;99.90;;;;;;5013905;28;19929;-61
2023/01/11 13:21:00;;;;;;;;;;;10.00;99.90;;;;;;5013946;28;19925;-62
2023/01/11 13:23:31;;;;;;;;;;;9.90;99.90;;;;;;5013428;28;19932;-62
2023/01/11 13:26:01;;;;;;;;;;;9.90;99.90;;;;;;5013546;28;20008;-61
2023/01/11 13:28:29;;;;;;;;;;;9.80;99.90;;;;;;5013105;28;19926;-60
2023/01/11 13:30:57;;;;;;;;;;;9.70;99.90;;;;;;5013675;28;20009;-61
2023/01/11 13:33:25;;;;;;;;;;;9.60;66.80;;;;;;5013400;28;20016;-62
2023/01/11 13:35:55;;;;;;;;;;;9.50;92.50;;;;;;5013566;28;19921;-62
2023/01/11 13:38:27;;;;;;;;;;;9.40;99.10;;;;;;5012892;28;20439;-61
2023/01/11 13:40:57;;;;;;;;;;;9.30;99.90;;;;;;5013900;28;19968;-62
2023/01/11 13:43:27;;;;;;;;;;;9.20;99.90;;;;;;5021728;28;19925;-63
2023/01/11 13:45:57;;;;;;;;;;;9.20;99.90;;;;;;5027132;28;19974;-60
2023/01/11 13:48:26;;;;;;;;;;;9.10;99.90;;;;;;5032921;28;19948;-62
2023/01/11 13:50:59;;;;;;;;;;;9.20;99.90;;;;;;5032521;28;20557;-59
2023/01/11 13:53:29;;;;;;;;;;;9.20;99.90;;;;;;5033255;28;19928;-61
2023/01/11 13:56:01;;;;;;;;;;;9.20;99.90;;;;;;5032670;28;19945;-62
2023/01/11 13:58:32;;;;;;;;;;;9.30;99.90;;;;;;5032814;28;19925;-60
2023/01/11 14:01:02;;;;;;;;;;;9.30;96.50;;;;;;5032986;28;19921;-61
2023/01/11 14:03:30;;;;;;;;;;;9.30;99.90;;;;;;5032346;28;19933;-56
2023/01/11 14:06:06;;;;;;;;;;;9.30;99.90;;;;;;5017339;28;19929;-60
2023/01/11 14:08:44;;;;;;;;;;;9.30;99.90;;;;;;5020792;28;19979;-59
2023/01/11 14:11:16;;;;;;;;;;;9.30;99.70;;;;;;5021092;28;19928;-59
2023/01/11 14:14:16;;;;;;;;;;;9.40;82.30;;;;;;5023957;28;19924;-63
2023/01/11 14:16:59;;;;;;;;;;;9.30;93.90;;;;;;5032153;28;19975;-63
2023/01/11 14:19:28;;;;;;;;;;;9.30;90.40;;;;;;5032224;28;20332;-62
2023/01/11 14:22:04;;;;;;;;;;;9.30;91.00;;;;;;5032321;28;19932;-63
2023/01/11 14:24:33;;;;;;;;;;;9.20;92.60;;;;;;5031643;28;20277;-61
2023/01/11 14:27:10;;;;;;;;;;;9.30;85.50;;;;;;5032521;28;19924;-61
2023/01/11 14:29:43;;;;;;;;;;;9.30;78.00;;;;;;5031994;28;19931;-62
2023/01/11 14:32:17;;;;;;;;;;;9.20;93.90;;;;;;5032285;28;19921;-59
2023/01/11 14:34:58;;;;;;;;;;;9.20;90.80;;;;;;5032264;28;19941;-62
2023/01/11 14:37:43;;;;;;;;;;;9.20;90.60;;;;;;5031756;28;19975;-61
2023/01/11 14:40:19;;;;;;;;;;;9.10;93.50;;;;;;4996635;28;19938;-59
2023/01/11 14:43:00;;;;;;;;;;;9.10;95.40;;;;;;5015234;28;19933;-62
2023/01/11 14:45:34;;;;;;;;;;;9.10;80.30;;;;;;5020823;28;19925;-62
2023/01/11 14:48:10;;;;;;;;;;;9.20;59.80;;;;;;5018573;28;20399;-62
2023/01/11 14:50:42;;;;;;;;;;;9.20;58.00;;;;;;5016892;28;19972;-62
2023/01/11 14:53:11;;;;;;;;;;;9.20;65.20;;;;;;5020248;28;20308;-62
2023/01/11 14:55:43;;;;;;;;;;;9.20;70.30;;;;;;5031765;28;19934;-62
2023/01/11 14:58:17;;;;;;;;;;;9.20;60.60;;;;;;5031849;28;19928;-63
2023/01/11 15:00:58;;;;;;;;;;;9.20;53.40;;;;;;5025210;28;19967;-63
2023/01/11 15:03:30;;;;;;;;;;;9.30;55.30;;;;;;5014637;28;19925;-62
2023/01/11 15:05:58;;;;;;;;;;;9.20;56.50;;;;;;5011153;28;19921;-61
2023/01/11 15:08:26;;;;;;;;;;;9.20;40.70;;;;;;5012455;28;19948;-64
2023/01/11 15:10:57;;;;;;;;;;;9.20;59.50;;;;;;5011669;28;19928;-64
2023/01/11 15:13:25;;;;;;;;;;;9.10;58.70;;;;;;5021971;28;20380;-63